This is the latest recevied weather packets stored in our database for station/object DL4NBA-1. If no packets are shown the sender has not sent any weather packets the latest 10 day(s).
| Time | Temp. | Humidity | Pressure | Rain* | Wind** | Luminosity | Snow |
|---|---|---|---|---|---|---|---|
| 1777629698 | 20° C | - | - | 0 mm | 4.47 m/s, 105° | - | - |
| 1777629400 | 20° C | - | - | 0 mm | 4.02 m/s, 111° | - | - |
| 1777629101 | 20° C | - | - | 0 mm | 5.36 m/s, 98° | - | - |
| 1777628802 | 20° C | - | - | 0 mm | 4.92 m/s, 84° | - | - |
| 1777628504 | 19.44° C | - | - | 0 mm | 3.13 m/s, 52° | - | - |
| 1777628202 | 20° C | - | - | 0 mm | 4.92 m/s, 115° | - | - |
| 1777627605 | 20° C | - | - | 0 mm | 4.92 m/s, 128° | - | - |
| 1777627307 | 19.44° C | - | - | 0 mm | 4.92 m/s, 98° | - | - |
| 1777627008 | 19.44° C | - | - | 0 mm | 4.47 m/s, 114° | - | - |
| 1777626705 | 19.44° C | - | - | 0 mm | 4.92 m/s, 107° | - | - |
| 1777626406 | 18.89° C | - | - | 0 mm | 6.26 m/s, 105° | - | - |
| 1777626108 | 18.89° C | - | - | 0 mm | 4.92 m/s, 68° | - | - |
| 1777625809 | 18.33° C | - | - | 0 mm | 4.47 m/s, 68° | - | - |
| 1777625511 | 18.33° C | - | - | 0 mm | 4.47 m/s, 111° | - | - |
| 1777624910 | 17.78° C | - | - | 0 mm | 2.24 m/s, 51° | - | - |
| 1777624609 | 17.78° C | - | - | 0 mm | 2.24 m/s, 101° | - | - |
| 1777624381 | 17.22° C | - | - | 0 mm | 4.47 m/s, 131° | - | - |
| 1777624311 | 17.22° C | - | - | 0 mm | 4.47 m/s, 131° | - | - |
| 1777624011 | 17.22° C | - | - | 0 mm | 2.68 m/s, 104° | - | - |
| 1777623710 | 16.67° C | - | - | 0 mm | 4.02 m/s, 79° | - | - |
| 1777623411 | 16.11° C | - | - | 0 mm | 4.92 m/s, 107° | - | - |
| 1777623112 | 16.67° C | - | - | 0 mm | 3.58 m/s, 125° | - | - |
| 1777622814 | 16.11° C | - | - | 0 mm | 2.68 m/s, 101° | - | - |
| 1777622515 | 16.11° C | - | - | 0 mm | 3.13 m/s, 124° | - | - |
| 1777622214 | 15.56° C | - | - | 0 mm | 4.02 m/s, 98° | - | - |
* Rain latest hour (hover to see other rain measurements)
** Current wind speed in m/s (hover to see current wind gust speed)